Time;durP1;ratioP1;P1;durP2;ratioP2;P2;SDS_P1;SDS_P2;PMS_P1;PMS_P2;Temp;Humidity;BMP_temperature;BMP_pressure;BME280_temperature;BME280_humidity;BME280_pressure;Samples;Min_cycle;Max_cycle;Signal;HPM_P1;HPM_P2
2022/09/08 00:00:58;;;;;;;5.15;1.85;;;;;;;10.88;100.00;99857.00;5172215;27;20046;-53
2022/09/08 00:03:28;;;;;;;4.05;1.70;;;;;;;11.18;100.00;99857.44;5171990;27;20054;-56
2022/09/08 00:05:58;;;;;;;1.65;1.50;;;;;;;11.08;100.00;99858.75;5173421;27;20050;-56
2022/09/08 00:08:25;;;;;;;1.38;1.27;;;;;;;10.95;100.00;99862.69;5175786;27;20060;-54
2022/09/08 00:10:53;;;;;;;2.33;1.67;;;;;;;10.49;100.00;99862.97;5175699;27;20046;-57
2022/09/08 00:13:23;;;;;;;1.55;1.45;;;;;;;10.46;100.00;99846.41;5175690;27;20569;-55
2022/09/08 00:15:50;;;;;;;3.15;1.58;;;;;;;10.81;100.00;99841.16;5175902;27;20046;-55
2022/09/08 00:18:17;;;;;;;1.60;1.50;;;;;;;10.53;100.00;99830.16;5175826;27;20050;-53
2022/09/08 00:20:43;;;;;;;1.75;1.35;;;;;;;10.59;100.00;99828.78;5175738;27;20057;-53
2022/09/08 00:23:09;;;;;;;2.10;1.73;;;;;;;10.36;100.00;99818.38;5175559;27;20051;-56
2022/09/08 00:25:35;;;;;;;3.38;1.50;;;;;;;10.44;100.00;99807.59;5175631;27;20518;-53
2022/09/08 00:28:02;;;;;;;1.58;1.48;;;;;;;10.49;100.00;99801.88;5175686;27;20046;-55
2022/09/08 00:30:30;;;;;;;3.65;1.73;;;;;;;10.19;100.00;99785.72;5175353;27;20421;-56
2022/09/08 00:32:57;;;;;;;2.88;1.48;;;;;;;10.38;100.00;99779.63;5175664;27;20050;-53
2022/09/08 00:35:23;;;;;;;2.97;1.60;;;;;;;10.23;100.00;99775.69;5175335;27;20442;-51
2022/09/08 00:37:49;;;;;;;4.78;1.48;;;;;;;10.27;100.00;99762.09;5175576;27;20540;-54
2022/09/08 00:40:16;;;;;;;3.60;1.88;;;;;;;10.30;100.00;99753.97;5175545;27;20042;-52
2022/09/08 00:42:42;;;;;;;2.05;1.85;;;;;;;10.33;100.00;99742.31;5175592;27;20094;-53
2022/09/08 00:45:10;;;;;;;2.97;1.65;;;;;;;10.25;100.00;99721.31;5175381;27;20078;-55
2022/09/08 00:47:42;;;;;;;1.65;1.55;;;;;;;10.41;100.00;99720.59;5175315;27;20505;-55
2022/09/08 00:50:13;;;;;;;2.50;1.80;;;;;;;10.43;100.00;99737.47;5175314;27;20057;-55
2022/09/08 00:52:44;;;;;;;3.45;1.67;;;;;;;10.39;100.00;99747.53;5175120;27;20050;-51
2022/09/08 00:55:11;;;;;;;3.95;2.00;;;;;;;10.27;100.00;99737.44;5175309;27;20042;-54
2022/09/08 00:57:38;;;;;;;2.13;1.92;;;;;;;9.83;100.00;99727.16;5175202;27;20182;-51
2022/09/08 01:00:05;;;;;;;1.77;1.67;;;;;;;10.35;100.00;99684.41;5175569;27;20101;-52
2022/09/08 01:02:32;;;;;;;2.15;1.95;;;;;;;10.31;100.00;99686.25;5175312;27;20394;-54
2022/09/08 01:05:03;;;;;;;2.22;1.90;;;;;;;10.22;100.00;99711.03;5175137;27;20413;-52
2022/09/08 01:13:32;;;;;;;5.40;1.80;;;;;;;10.15;100.00;99732.75;5174859;27;20046;-53
2022/09/08 01:15:58;;;;;;;2.47;2.10;;;;;;;10.11;100.00;99718.16;5174830;27;20054;-53
2022/09/08 01:18:25;;;;;;;3.13;2.80;;;;;;;10.00;100.00;99711.59;5174775;27;20129;-53
2022/09/08 01:20:59;;;;;;;2.75;2.10;;;;;;;10.12;100.00;99704.13;5174863;27;20077;-55
2022/09/08 01:23:52;;;;;;;3.42;2.88;;;;;;;10.15;100.00;99710.84;5174682;27;20057;-52
2022/09/08 01:26:34;;;;;;;3.28;2.70;;;;;;;9.97;100.00;99721.31;5174582;27;20053;-51
2022/09/08 01:29:05;;;;;;;2.95;2.17;;;;;;;9.86;100.00;99710.03;5174288;27;20133;-53
2022/09/08 01:31:33;;;;;;;3.50;2.50;;;;;;;9.84;100.00;99695.09;5174763;27;20050;-53
2022/09/08 01:34:00;;;;;;;3.55;2.30;;;;;;;9.63;100.00;99695.28;5174563;27;20047;-52
2022/09/08 01:36:26;;;;;;;3.05;2.38;;;;;;;9.78;100.00;99660.88;5174312;27;20054;-51
2022/09/08 01:38:52;;;;;;;3.80;2.60;;;;;;;9.58;100.00;99668.91;5174403;27;20050;-52
2022/09/08 01:41:19;;;;;;;5.85;2.90;;;;;;;9.58;100.00;99651.69;5174392;27;20069;-51
2022/09/08 01:43:45;;;;;;;3.42;2.17;;;;;;;9.77;100.00;99657.34;5174435;27;20137;-52
2022/09/08 01:46:12;;;;;;;3.67;2.75;;;;;;;9.54;100.00;99667.22;5174413;27;20079;-51
2022/09/08 01:48:38;;;;;;;3.65;3.35;;;;;;;9.38;100.00;99656.19;5174432;27;20141;-52
2022/09/08 01:51:07;;;;;;;3.67;3.28;;;;;;;9.42;100.00;99633.25;5174265;27;20645;-54
2022/09/08 01:53:34;;;;;;;4.30;2.75;;;;;;;9.52;100.00;99637.44;5174229;27;20149;-51
2022/09/08 01:56:01;;;;;;;3.70;3.05;;;;;;;9.51;100.00;99643.28;5173982;27;20046;-52
2022/09/08 01:58:27;;;;;;;4.38;2.88;;;;;;;9.42;100.00;99644.19;5174132;27;20053;-54
2022/09/08 02:00:54;;;;;;;4.07;2.95;;;;;;;9.47;100.00;99648.66;5174165;27;20470;-55
2022/09/08 02:03:20;;;;;;;4.30;2.88;;;;;;;9.38;100.00;99656.97;5174161;27;20076;-53
2022/09/08 02:05:47;;;;;;;5.53;2.92;;;;;;;9.32;100.00;99663.03;5173982;27;20057;-53
2022/09/08 02:08:13;;;;;;;7.53;4.07;;;;;;;9.36;100.00;99661.19;5174142;27;20401;-52
2022/09/08 02:10:39;;;;;;;5.03;3.08;;;;;;;9.37;100.00;99665.53;5173860;27;20054;-54
2022/09/08 02:13:07;;;;;;;8.32;4.30;;;;;;;9.27;100.00;99679.69;5173966;27;20050;-53
2022/09/08 02:15:33;;;;;;;4.72;3.15;;;;;;;9.28;100.00;99681.28;5173646;27;20050;-52
2022/09/08 02:18:00;;;;;;;4.47;3.35;;;;;;;9.25;100.00;99690.16;5173829;27;20562;-52
2022/09/08 02:20:27;;;;;;;3.92;3.00;;;;;;;9.36;100.00;99685.81;5173750;27;20468;-55
2022/09/08 02:22:54;;;;;;;4.57;2.90;;;;;;;9.40;100.00;99692.22;5173723;27;20258;-52
2022/09/08 02:25:21;;;;;;;6.00;3.40;;;;;;;9.64;100.00;99689.44;5173402;27;20436;-54
2022/09/08 02:27:50;;;;;;;8.07;3.30;;;;;;;9.75;100.00;99686.22;5173353;27;20562;-54
2022/09/08 02:30:16;;;;;;;5.50;3.80;;;;;;;9.73;100.00;99705.75;5173048;27;20054;-53
2022/09/08 02:32:42;;;;;;;6.10;3.60;;;;;;;9.71;100.00;99713.50;5173506;27;20046;-52
2022/09/08 02:35:09;;;;;;;5.18;3.83;;;;;;;9.63;100.00;99715.22;5173590;27;20051;-54
2022/09/08 02:37:36;;;;;;;4.35;3.88;;;;;;;9.61;100.00;99703.81;5173478;27;20599;-52
2022/09/08 02:40:03;;;;;;;5.03;3.72;;;;;;;9.82;100.00;99694.63;5173654;27;20065;-55
2022/09/08 02:42:29;;;;;;;8.10;4.40;;;;;;;9.55;100.00;99705.19;5173390;27;20065;-53
2022/09/08 02:44:55;;;;;;;6.55;4.32;;;;;;;9.36;100.00;99688.56;5173233;27;20094;-52
2022/09/08 02:47:22;;;;;;;7.00;4.70;;;;;;;9.55;100.00;99663.34;5173291;27;20048;-52
2022/09/08 02:49:48;;;;;;;9.60;5.38;;;;;;;9.35;100.00;99668.59;5173270;27;20132;-55
2022/09/08 02:52:14;;;;;;;6.10;4.70;;;;;;;9.53;100.00;99657.41;5172905;27;20054;-56
2022/09/08 02:54:41;;;;;;;6.55;4.57;;;;;;;9.35;100.00;99657.66;5173429;27;20046;-54
2022/09/08 02:57:07;;;;;;;5.68;4.40;;;;;;;9.51;100.00;99656.97;5173259;27;20047;-52
2022/09/08 02:59:33;;;;;;;9.15;5.28;;;;;;;9.76;100.00;99653.00;5173270;27;20429;-52
2022/09/08 03:01:59;;;;;;;10.10;4.97;;;;;;;9.69;100.00;99679.38;5173034;27;20489;-54
2022/09/08 03:04:26;;;;;;;6.97;4.95;;;;;;;9.85;100.00;99699.41;5173101;27;20054;-51
2022/09/08 03:06:52;;;;;;;5.90;4.65;;;;;;;9.87;100.00;99725.31;5172996;27;20458;-54
2022/09/08 03:09:18;;;;;;;7.75;5.05;;;;;;;9.35;100.00;99741.69;5172937;27;20042;-52
2022/09/08 03:11:45;;;;;;;6.90;4.57;;;;;;;9.81;100.00;99720.44;5172886;27;20058;-51
2022/09/08 03:14:11;;;;;;;6.22;5.15;;;;;;;9.80;100.00;99743.50;5172873;27;20061;-52
2022/09/08 03:16:39;;;;;;;6.55;4.93;;;;;;;9.70;100.00;99754.91;5172840;27;20090;-52
2022/09/08 03:19:06;;;;;;;7.60;5.07;;;;;;;9.26;100.00;99725.38;5173143;27;20421;-52
2022/09/08 03:21:32;;;;;;;5.55;4.30;;;;;;;9.03;100.00;99707.81;5173037;27;20084;-52
2022/09/08 03:23:59;;;;;;;9.43;4.85;;;;;;;9.17;100.00;99702.84;5172557;27;20046;-53
2022/09/08 03:26:25;;;;;;;6.85;4.40;;;;;;;9.06;100.00;99694.25;5172661;27;20505;-52
2022/09/08 03:28:52;;;;;;;14.10;4.72;;;;;;;8.79;100.00;99667.59;5172988;27;20068;-51
2022/09/08 03:31:21;;;;;;;7.88;5.75;;;;;;;8.98;100.00;99645.97;5172666;27;20111;-51
2022/09/08 03:33:47;;;;;;;5.22;4.38;;;;;;;8.77;100.00;99642.56;5172465;27;20064;-52
2022/09/08 03:36:15;;;;;;;6.85;4.68;;;;;;;8.83;100.00;99658.38;5172487;27;20046;-52
2022/09/08 03:38:42;;;;;;;6.93;4.32;;;;;;;9.32;100.00;99649.34;5172662;27;20061;-51
2022/09/08 03:41:12;;;;;;;4.95;3.80;;;;;;;9.35;100.00;99687.75;5171208;27;20106;-51
2022/09/08 03:43:42;;;;;;;6.90;4.22;;;;;;;9.57;100.00;99727.53;5172469;27;20054;-51
2022/09/08 03:46:09;;;;;;;7.97;5.40;;;;;;;9.38;100.00;99749.22;5172299;27;20081;-51
2022/09/08 03:48:35;;;;;;;6.82;5.57;;;;;;;9.45;100.00;99756.84;5172272;27;20046;-54
2022/09/08 03:51:08;;;;;;;5.85;5.03;;;;;;;9.24;100.00;99759.72;5172239;27;20497;-51
2022/09/08 03:53:34;;;;;;;5.53;4.20;;;;;;;9.22;100.00;99756.50;5172112;27;20061;-55
2022/09/08 03:56:04;;;;;;;7.53;4.10;;;;;;;9.28;100.00;99753.22;5172291;27;20046;-52
2022/09/08 03:58:32;;;;;;;5.53;3.88;;;;;;;9.54;100.00;99766.56;5172242;27;20133;-55
2022/09/08 04:01:00;;;;;;;4.43;4.03;;;;;;;9.21;100.00;99796.75;5172335;27;20394;-51
2022/09/08 04:03:27;;;;;;;5.28;4.20;;;;;;;9.44;100.00;99780.69;5172259;27;20194;-52
2022/09/08 04:05:54;;;;;;;6.00;4.85;;;;;;;9.26;100.00;99795.72;5172367;27;20046;-51
2022/09/08 04:08:20;;;;;;;5.32;4.47;;;;;;;9.47;100.00;99817.53;5171931;27;20099;-52
2022/09/08 04:10:46;;;;;;;7.18;4.75;;;;;;;9.50;100.00;99838.75;5172149;27;20109;-53
2022/09/08 04:13:13;;;;;;;5.88;4.00;;;;;;;9.23;100.00;99851.94;5171989;27;20425;-52
2022/09/08 04:15:39;;;;;;;6.68;4.47;;;;;;;9.16;100.00;99865.34;5171965;27;20042;-51
2022/09/08 04:18:05;;;;;;;4.85;3.75;;;;;;;9.07;100.00;99846.31;5172026;27;20050;-54
2022/09/08 04:20:32;;;;;;;5.47;4.60;;;;;;;9.49;100.00;99842.63;5171927;27;20083;-57
2022/09/08 04:22:58;;;;;;;6.43;4.50;;;;;;;9.56;100.00;99871.03;5171987;27;20050;-52
2022/09/08 04:25:25;;;;;;;5.60;4.55;;;;;;;9.40;100.00;99892.00;5171848;27;20058;-52
2022/09/08 04:27:52;;;;;;;4.68;4.05;;;;;;;9.66;100.00;99894.41;5172007;27;20046;-54
2022/09/08 04:30:18;;;;;;;4.35;3.85;;;;;;;9.68;100.00;99911.31;5171768;27;20078;-54
2022/09/08 04:32:44;;;;;;;6.22;3.97;;;;;;;9.81;100.00;99929.34;5171919;27;20402;-55
2022/09/08 04:35:10;;;;;;;6.95;4.22;;;;;;;9.76;100.00;99967.88;5171769;27;20043;-52
2022/09/08 04:37:38;;;;;;;11.02;3.95;;;;;;;9.81;100.00;99970.41;5171681;27;20520;-55
2022/09/08 04:40:06;;;;;;;11.18;4.15;;;;;;;10.43;100.00;99981.44;5171606;27;20107;-55
2022/09/08 04:42:33;;;;;;;5.45;3.47;;;;;;;10.95;100.00;100008.09;5171606;27;20087;-55
2022/09/08 04:44:59;;;;;;;3.95;3.30;;;;;;;11.86;100.00;99983.59;5171470;27;20042;-54
2022/09/08 04:47:26;;;;;;;4.20;2.85;;;;;;;12.72;100.00;99793.06;5171529;27;20057;-52
2022/09/08 04:49:53;;;;;;;5.70;2.72;;;;;;;12.68;100.00;99443.63;5171638;27;20134;-51
2022/09/08 04:52:20;;;;;;;7.35;2.55;;;;;;;12.87;100.00;99221.81;5173255;27;20062;-56
2022/09/08 04:54:47;;;;;;;7.30;2.50;;;;;;;13.46;100.00;98965.81;5174965;27;20046;-53
2022/09/08 04:57:15;;;;;;;6.13;2.53;;;;;;;13.65;100.00;98823.03;5174805;27;20098;-52
2022/09/08 04:59:42;;;;;;;5.55;2.42;;;;;;;14.74;100.00;98634.00;5175270;27;20077;-56
2022/09/08 05:02:08;;;;;;;11.80;2.80;;;;;;;14.94;100.00;98592.84;5174679;27;20046;-52
2022/09/08 05:04:34;;;;;;;7.88;2.83;;;;;;;14.78;100.00;98632.00;5175157;27;20057;-57
2022/09/08 05:07:00;;;;;;;4.88;2.17;;;;;;;15.19;100.00;98563.00;5174861;27;20069;-55
2022/09/08 05:09:26;;;;;;;8.18;3.05;;;;;;;16.14;100.00;98570.59;5174859;27;20051;-53
2022/09/08 05:11:53;;;;;;;12.25;2.55;;;;;;;16.21;100.00;98613.94;5174570;27;20053;-53
2022/09/08 05:14:19;;;;;;;3.10;2.50;;;;;;;15.96;100.00;98620.59;5174970;27;20098;-55
2022/09/08 05:16:46;;;;;;;2.75;2.25;;;;;;;17.09;100.00;98677.50;5174487;27;20053;-57
2022/09/08 05:19:12;;;;;;;7.30;3.15;;;;;;;15.53;100.00;98629.34;5174929;27;20042;-56
2022/09/08 05:21:39;;;;;;;5.07;2.72;;;;;;;15.76;100.00;98667.44;5174852;27;20111;-55
2022/09/08 05:24:06;;;;;;;2.58;2.35;;;;;;;15.17;100.00;98622.63;5174563;27;20424;-55
2022/09/08 05:26:32;;;;;;;3.65;2.15;;;;;;;15.96;100.00;98620.59;5174617;27;20167;-53
2022/09/08 05:29:00;;;;;;;3.45;2.40;;;;;;;16.22;100.00;98657.00;5174533;27;20046;-55
2022/09/08 05:31:28;;;;;;;2.72;1.80;;;;;;;16.11;100.00;98645.28;5174639;27;20544;-54
2022/09/08 05:33:57;;;;;;;7.00;2.13;;;;;;;16.54;100.00;98709.13;5174360;27;20516;-54
2022/09/08 05:36:26;;;;;;;9.05;2.15;;;;;;;17.15;100.00;98744.28;5174290;27;20477;-56
2022/09/08 05:38:52;;;;;;;3.50;2.42;;;;;;;17.84;100.00;98783.56;5174089;27;20057;-51
2022/09/08 05:41:19;;;;;;;3.40;2.03;;;;;;;17.04;100.00;98838.59;5172454;27;20050;-51
2022/09/08 05:43:45;;;;;;;2.00;1.80;;;;;;;17.07;100.00;98796.22;5174323;27;20052;-51
2022/09/08 05:46:12;;;;;;;2.40;2.20;;;;;;;17.47;100.00;98782.56;5174393;27;20046;-52
2022/09/08 05:48:39;;;;;;;4.07;2.40;;;;;;;16.92;100.00;98864.84;5174248;27;20057;-50
2022/09/08 05:51:09;;;;;;;4.15;2.20;;;;;;;17.57;100.00;98856.44;5174034;27;20057;-53
2022/09/08 05:53:35;;;;;;;2.17;1.98;;;;;;;18.39;100.00;98876.47;5173922;27;20050;-52
2022/09/08 05:56:03;;;;;;;2.22;2.03;;;;;;;18.69;100.00;98931.03;5174375;27;20112;-51
2022/09/08 05:58:30;;;;;;;4.55;2.35;;;;;;;18.52;100.00;98929.38;5173979;27;20565;-51
2022/09/08 06:00:58;;;;;;;3.08;2.20;;;;;;;19.05;100.00;98958.16;5173956;27;20102;-56
2022/09/08 06:03:26;;;;;;;5.13;2.05;;;;;;;18.71;100.00;99005.59;5172802;27;20470;-56
2022/09/08 06:05:53;;;;;;;3.90;2.45;;;;;;;18.88;100.00;98964.84;5173797;27;20453;-55
2022/09/08 06:08:21;;;;;;;4.82;2.38;;;;;;;18.63;100.00;98985.50;5173865;27;20046;-56
2022/09/08 06:10:49;;;;;;;6.13;2.45;;;;;;;19.02;100.00;99009.03;5173760;27;20145;-56
2022/09/08 06:13:15;;;;;;;5.05;2.30;;;;;;;19.37;100.00;99029.00;5173817;27;20520;-55
2022/09/08 06:15:42;;;;;;;4.88;2.72;;;;;;;19.55;100.00;99045.31;5173655;27;20054;-55
2022/09/08 06:18:08;;;;;;;4.75;2.40;;;;;;;19.74;100.00;99061.25;5173861;27;20137;-54
2022/09/08 06:20:35;;;;;;;2.80;2.00;;;;;;;20.06;100.00;99093.94;5173609;27;20054;-53
2022/09/08 06:23:01;;;;;;;2.85;1.50;;;;;;;19.98;100.00;99084.16;5173744;27;20050;-53
2022/09/08 06:25:28;;;;;;;1.80;1.70;;;;;;;19.70;100.00;99105.03;5173428;27;20050;-57
2022/09/08 06:28:01;;;;;;;3.33;2.00;;;;;;;18.79;100.00;99091.19;5173426;27;20472;-53
2022/09/08 06:30:27;;;;;;;2.28;1.83;;;;;;;18.65;100.00;99030.28;5173537;27;20428;-58
2022/09/08 06:32:58;;;;;;;6.13;2.00;;;;;;;19.91;100.00;99062.06;5173265;27;20508;-56
2022/09/08 06:35:29;;;;;;;3.38;2.05;;;;;;;20.71;100.00;99137.06;5173546;27;20050;-55
2022/09/08 06:37:58;;;;;;;2.45;1.73;;;;;;;20.54;100.00;99133.47;5173438;27;20137;-53
2022/09/08 06:40:28;;;;;;;3.78;1.80;;;;;;;19.96;100.00;99143.03;5173531;27;20046;-53
2022/09/08 06:43:01;;;;;;;3.22;1.98;;;;;;;20.58;100.00;99132.16;5173214;27;20141;-55
2022/09/08 06:45:33;;;;;;;2.72;2.10;;;;;;;20.48;100.00;99129.59;5173235;27;20069;-56
2022/09/08 06:48:15;;;;;;;2.72;1.85;;;;;;;19.92;100.00;99166.56;5173588;27;20825;-53
2022/09/08 06:50:55;;;;;;;3.50;2.05;;;;;;;19.63;100.00;99125.44;5173355;27;20050;-55
2022/09/08 06:53:27;;;;;;;4.63;2.00;;;;;;;20.28;100.00;99141.56;5173084;27;20551;-53
2022/09/08 06:56:01;;;;;;;2.95;2.20;;;;;;;21.13;100.00;99154.75;5172806;27;20558;-53
2022/09/08 06:58:30;;;;;;;4.80;2.63;;;;;;;21.02;100.00;99166.13;5173235;27;20179;-56
2022/09/08 07:01:01;;;;;;;6.15;2.30;;;;;;;19.95;100.00;99174.84;5173327;27;20050;-56
2022/09/08 07:03:43;;;;;;;4.65;2.10;;;;;;;20.29;100.00;99186.88;5172642;27;20102;-53
2022/09/08 07:06:10;;;;;;;3.10;2.42;;;;;;;18.93;100.00;99144.94;5173019;27;20050;-56
2022/09/08 07:08:53;;;;;;;5.05;2.33;;;;;;;20.64;100.00;99147.16;5173233;27;20159;-56
2022/09/08 07:11:31;;;;;;;5.43;2.40;;;;;;;20.57;100.00;99161.25;5172856;27;20519;-53
2022/09/08 07:14:06;;;;;;;7.68;5.10;;;;;;;19.68;100.00;99146.38;5173023;27;20130;-54
2022/09/08 07:16:39;;;;;;;12.45;6.35;;;;;;;21.01;100.00;99181.28;5173116;27;20046;-55
2022/09/08 07:19:15;;;;;;;11.07;7.60;;;;;;;20.35;100.00;99188.72;5172882;27;20056;-57
2022/09/08 07:21:51;;;;;;;11.98;7.43;;;;;;;20.33;100.00;99188.41;5172867;27;20502;-55
2022/09/08 07:24:21;;;;;;;7.45;5.72;;;;;;;20.83;100.00;99204.03;5172803;27;20054;-56
2022/09/08 07:26:52;;;;;;;5.78;3.88;;;;;;;20.26;100.00;99205.25;5172464;27;20042;-52
2022/09/08 07:29:22;;;;;;;11.18;8.50;;;;;;;19.32;100.00;99172.03;5172768;27;20114;-55
2022/09/08 07:31:51;;;;;;;10.70;7.95;;;;;;;19.94;100.00;99205.88;5172327;27;20054;-54
2022/09/08 07:34:21;;;;;;;8.00;4.65;;;;;;;18.79;100.00;99174.50;5172565;27;20058;-57
2022/09/08 07:36:54;;;;;;;5.95;4.00;;;;;;;17.99;100.00;99136.31;5172544;27;20087;-54
2022/09/08 07:39:26;;;;;;;7.95;4.80;;;;;;;17.91;100.00;99082.94;5172492;27;20418;-59
2022/09/08 07:41:54;;;;;;;9.70;5.57;;;;;;;18.56;100.00;99141.09;5172348;27;20046;-55
2022/09/08 07:44:21;;;;;;;5.80;3.92;;;;;;;17.88;100.00;99131.69;5172921;27;20367;-51
2022/09/08 07:47:27;;;;;;;9.13;3.13;;;;;;;18.10;100.00;99123.88;5172860;27;20061;-52
2022/09/08 07:50:03;;;;;;;6.13;3.00;;;;;;;17.59;100.00;99095.19;5169204;27;20050;-54
2022/09/08 07:52:42;;;;;;;5.35;3.47;;;;;;;18.68;100.00;99121.06;5172329;27;20088;-52
2022/09/08 07:55:24;;;;;;;6.20;3.70;;;;;;;18.38;100.00;99105.25;5172224;27;20137;-56
2022/09/08 07:58:01;;;;;;;11.27;4.20;;;;;;;17.95;100.00;99033.75;5172066;27;20052;-55
2022/09/08 08:00:37;;;;;;;9.27;4.55;;;;;;;18.72;100.00;99088.50;5172845;27;20730;-56
2022/09/08 08:03:19;;;;;;;4.07;3.67;;;;;;;19.70;100.00;99160.66;5172252;27;20046;-53
2022/09/08 08:05:48;;;;;;;5.25;3.55;;;;;;;18.10;100.00;99114.78;5171916;27;20046;-55
2022/09/08 08:08:23;;;;;;;7.07;3.45;;;;;;;17.32;100.00;99088.75;5172086;27;20178;-55
2022/09/08 08:11:00;;;;;;;5.45;3.10;;;;;;;17.47;100.00;99065.22;5171778;27;20528;-56
2022/09/08 08:13:39;;;;;;;3.63;2.40;;;;;;;18.15;100.00;99089.34;5171986;27;20053;-55
2022/09/08 08:16:09;;;;;;;2.97;2.40;;;;;;;17.47;100.00;99119.88;5172072;27;20082;-55
2022/09/08 08:18:47;;;;;;;3.85;2.60;;;;;;;17.76;100.00;99103.69;5171978;27;20515;-56
2022/09/08 08:21:16;;;;;;;2.85;2.58;;;;;;;18.30;100.00;99187.06;5171787;27;20493;-54
2022/09/08 08:24:01;;;;;;;3.78;2.70;;;;;;;18.22;100.00;99163.38;5171912;27;20054;-53
2022/09/08 08:26:35;;;;;;;3.15;2.47;;;;;;;17.41;100.00;99145.25;5172482;27;20054;-54
2022/09/08 08:29:20;;;;;;;7.07;3.28;;;;;;;17.70;100.00;99147.72;5176024;27;20053;-54
2022/09/08 08:31:52;;;;;;;6.90;3.42;;;;;;;18.69;100.00;99183.72;5175662;27;20137;-53
2022/09/08 08:34:25;;;;;;;4.38;2.72;;;;;;;18.87;100.00;99193.81;5175453;27;20050;-54
2022/09/08 08:36:54;;;;;;;3.33;2.35;;;;;;;19.45;100.00;99225.81;5175962;27;20050;-54
2022/09/08 08:39:23;;;;;;;4.45;2.72;;;;;;;19.20;100.00;99226.25;5175500;27;20077;-54
2022/09/08 08:42:05;;;;;;;4.82;4.20;;;;;;;18.90;100.00;99248.53;5175471;27;20490;-57
2022/09/08 08:44:52;;;;;;;7.70;3.38;;;;;;;17.35;100.00;99160.75;5175412;27;20062;-55
2022/09/08 08:47:44;;;;;;;7.85;4.35;;;;;;;16.99;100.00;99156.72;5175197;27;20069;-54
2022/09/08 08:50:40;;;;;;;4.47;2.33;;;;;;;16.64;100.00;99148.25;5175118;27;20050;-56
2022/09/08 08:53:34;;;;;;;3.72;2.40;;;;;;;18.46;100.00;99194.75;5175148;27;20072;-54
2022/09/08 08:56:08;;;;;;;;;;;;;;;18.50;100.00;99201.06;5175282;27;20046;-54
2022/09/08 08:58:58;;;;;;;9.15;2.20;;;;;;;18.31;100.00;99227.47;5174907;27;19978;-56
2022/09/08 09:01:41;;;;;;;3.47;2.00;;;;;;;18.40;100.00;99236.09;5175210;27;20513;-55
2022/09/08 09:04:57;;;;;;;2.72;2.10;;;;;;;18.34;100.00;99252.41;5175084;27;20098;-54
2022/09/08 09:07:43;;;;;;;2.35;1.48;;;;;;;19.11;100.00;99270.44;5137698;27;20105;-53
2022/09/08 09:10:43;;;;;;;18.67;2.35;;;;;;;19.67;100.00;99304.13;5174799;27;20401;-56
2022/09/08 09:13:24;;;;;;;3.50;2.45;;;;;;;19.91;100.00;99309.69;5174796;27;20054;-55
2022/09/08 09:16:17;;;;;;;3.13;2.15;;;;;;;20.44;100.00;99322.59;5174981;27;20046;-57
2022/09/08 09:19:22;;;;;;;6.88;2.10;;;;;;;20.34;100.00;99314.47;5174610;27;20078;-55
2022/09/08 09:21:52;;;;;;;5.25;1.60;;;;;;;19.82;100.00;99309.44;5158562;27;20046;-57
2022/09/08 09:24:30;;;;;;;3.08;1.80;;;;;;;;;;5174799;27;20496;-53
2022/09/08 09:26:56;;;;;;;2.55;1.85;;;;;;;19.92;100.00;99319.59;5174586;27;20050;-55
2022/09/08 09:29:25;;;;;;;4.68;1.60;;;;;;;20.39;100.00;99327.88;5174487;27;20053;-56
2022/09/08 09:32:30;;;;;;;1.85;1.40;;;;;;;19.95;100.00;99341.00;5174738;27;20050;-55
2022/09/08 09:35:19;;;;;;;3.42;1.80;;;;;;;20.42;100.00;99338.94;5089567;27;20058;-56
2022/09/08 09:38:13;;;;;;;1.80;1.70;;;;;;;20.36;100.00;99337.06;5173647;27;20093;-56
2022/09/08 09:41:13;;;;;;;1.77;1.67;;;;;;;20.00;100.00;99332.19;5174367;27;20125;-56
2022/09/08 09:44:04;;;;;;;2.53;1.65;;;;;;;19.12;100.00;99335.13;5174429;27;20271;-56
2022/09/08 09:47:09;;;;;;;2.72;1.48;;;;;;;19.52;100.00;99336.91;5174371;27;20535;-56
2022/09/08 09:50:11;;;;;;;3.85;1.40;;;;;;;20.70;99.34;99342.41;5147267;27;20554;-53
2022/09/08 09:52:47;;;;;;;3.13;2.30;;;;;;;21.30;90.83;99371.00;5174020;27;20046;-55
2022/09/08 09:55:36;;;;;;;6.88;2.13;;;;;;;20.85;87.22;99385.47;5174688;27;20042;-56
2022/09/08 09:58:35;;;;;;;1.77;1.40;;;;;;;19.56;83.39;99406.38;5174418;27;20053;-57
2022/09/08 10:01:31;;;;;;;1.77;1.67;;;;;;;20.24;81.80;99405.31;5173972;27;20098;-57
2022/09/08 10:04:33;;;;;;;3.00;1.30;;;;;;;18.98;93.79;99389.69;5174139;27;20424;-55
2022/09/08 10:07:28;;;;;;;1.52;1.42;;;;;;;18.87;96.52;99368.81;5173113;27;20144;-55
2022/09/08 10:10:24;;;;;;;1.67;1.13;;;;;;;18.41;93.65;99373.66;5173697;27;20103;-55
2022/09/08 10:13:30;;;;;;;2.47;0.90;;;;;;;17.78;96.43;99376.63;5173469;27;20081;-57
2022/09/08 10:16:38;;;;;;;1.15;1.05;;;;;;;17.78;94.51;99378.59;5173413;27;20098;-53
2022/09/08 10:19:33;;;;;;;2.05;0.85;;;;;;;17.56;95.77;99384.28;5173902;27;20054;-56
2022/09/08 10:22:29;;;;;;;1.85;1.08;;;;;;;17.64;100.00;99366.41;5174025;27;20053;-55
2022/09/08 10:25:40;;;;;;;2.88;1.08;;;;;;;18.24;97.32;99369.09;5173554;27;20095;-59
2022/09/08 10:28:36;;;;;;;1.55;1.30;;;;;;;17.84;100.00;99380.53;5173566;27;20046;-55
2022/09/08 10:31:35;;;;;;;2.83;1.25;;;;;;;17.28;100.00;99371.41;5173082;27;20053;-53
2022/09/08 10:34:39;;;;;;;2.40;1.50;;;;;;;18.24;100.00;99358.00;5173015;27;20047;-53
2022/09/08 10:37:18;;;;;;;3.75;1.20;;;;;;;18.30;94.34;99387.66;5173439;27;20405;-54
2022/09/08 10:40:08;;;;;;;1.15;1.05;;;;;;;19.11;88.01;99401.03;5173253;27;20061;-53
2022/09/08 10:42:47;;;;;;;3.47;0.80;;;;;;;18.20;93.78;99393.31;5173215;27;20148;-56
2022/09/08 10:45:33;;;;;;;1.33;0.90;;;;;;;17.70;95.97;99388.94;5173111;27;20092;-57
2022/09/08 10:48:47;;;;;;;0.80;0.80;;;;;;;17.46;97.35;99387.94;5170174;27;20050;-52
2022/09/08 10:51:35;;;;;;;6.93;1.20;;;;;;;16.72;99.96;99387.06;5173181;27;20046;-52
2022/09/08 10:54:21;;;;;;;0.80;0.80;;;;;;;17.74;98.19;99386.94;5173289;27;20049;-56
2022/09/08 10:56:49;;;;;;;0.85;0.85;;;;;;;17.41;92.49;99402.19;5172844;27;20136;-55
2022/09/08 10:59:50;;;;;;;5.72;0.85;;;;;;;16.94;92.62;99396.91;5173127;27;20419;-57
2022/09/08 11:02:30;;;;;;;1.45;1.00;;;;;;;18.00;89.83;99388.34;5172938;27;20401;-55
2022/09/08 11:05:30;;;;;;;1.58;0.75;;;;;;;18.33;87.38;99391.59;5172993;27;20050;-55
2022/09/08 11:08:44;;;;;;;1.00;1.00;;;;;;;17.87;91.84;99376.16;5168640;27;20047;-56
2022/09/08 11:11:46;;;;;;;1.20;1.00;;;;;;;16.73;100.00;99365.69;5173075;27;20046;-53
2022/09/08 11:14:39;;;;;;;0.90;0.90;;;;;;;16.69;100.00;99333.31;5172456;27;20057;-53
2022/09/08 11:17:13;;;;;;;2.30;0.95;;;;;;;16.62;100.00;99344.38;5172779;27;20102;-54
2022/09/08 11:19:40;;;;;;;3.63;1.10;;;;;;;15.95;100.00;99324.00;5172598;27;20095;-57
2022/09/08 11:22:32;;;;;;;1.65;1.00;;;;;;;15.75;100.00;99331.91;5172883;27;20046;-53
2022/09/08 11:25:13;;;;;;;1.85;1.05;;;;;;;15.41;100.00;99342.53;5172796;27;20050;-53
2022/09/08 11:27:49;;;;;;;2.38;0.80;;;;;;;15.90;100.00;99341.00;5172744;27;20057;-50
2022/09/08 11:30:18;;;;;;;1.40;1.02;;;;;;;16.11;100.00;99340.19;5172553;27;20084;-52
2022/09/08 11:32:55;;;;;;;2.58;1.02;;;;;;;16.09;100.00;99339.78;5172177;27;20053;-51
2022/09/08 11:35:34;;;;;;;1.50;1.20;;;;;;;16.05;100.00;99332.69;5172411;27;20054;-49
2022/09/08 11:38:24;;;;;;;2.42;0.98;;;;;;;16.28;100.00;99332.25;5172109;27;20081;-51
2022/09/08 11:41:13;;;;;;;0.90;0.90;;;;;;;15.47;100.00;99323.63;5172131;27;20085;-50
2022/09/08 11:43:56;;;;;;;2.05;1.23;;;;;;;15.64;100.00;99303.47;5172036;27;20057;-51
2022/09/08 11:46:50;;;;;;;6.20;2.17;;;;;;;15.73;100.00;99316.94;5172221;27;20045;-50
2022/09/08 11:49:42;;;;;;;1.88;0.70;;;;;;;15.40;100.00;99291.25;5172324;27;20042;-50
2022/09/08 11:52:34;;;;;;;0.95;0.80;;;;;;;15.25;100.00;99292.41;5145596;27;20061;-49
2022/09/08 11:55:16;;;;;;;1.05;0.82;;;;;;;14.99;100.00;99276.97;5171985;27;20140;-49
2022/09/08 11:57:55;;;;;;;3.45;0.90;;;;;;;15.33;100.00;99280.19;5172285;27;20511;-49
2022/09/08 12:01:05;;;;;;;1.25;1.10;;;;;;;15.82;100.00;99286.91;5171794;27;20042;-53
2022/09/08 12:03:50;;;;;;;2.90;1.38;;;;;;;16.10;100.00;99305.44;5155704;27;20054;-50
2022/09/08 12:06:37;;;;;;;1.02;0.98;;;;;;;16.21;100.00;99314.47;5171973;27;20562;-53
2022/09/08 12:09:21;;;;;;;3.00;0.88;;;;;;;16.50;100.00;99324.69;5171798;27;20050;-49